Time;durP1;ratioP1;P1;durP2;ratioP2;P2;SDS_P1;SDS_P2;PMS_P1;PMS_P2;Temp;Humidity;BMP_temperature;BMP_pressure;BME280_temperature;BME280_humidity;BME280_pressure;Samples;Min_cycle;Max_cycle;Signal;HPM_P1;HPM_P2
2024/01/11 00:01:28;;;;;;;59.10;25.80;;;-2.80;69.30;;;;;;5073613;28;20538;-77
2024/01/11 00:03:56;;;;;;;61.45;28.95;;;-2.80;69.10;;;;;;5073476;28;20045;-77
2024/01/11 00:06:41;;;;;;;58.30;29.48;;;-2.80;68.80;;;;;;5072693;28;20094;-78
2024/01/11 00:09:09;;;;;;;58.72;29.10;;;-2.90;68.60;;;;;;5051074;28;20033;-78
2024/01/11 00:11:36;;;;;;;62.58;29.00;;;-2.90;68.50;;;;;;5056557;28;20031;-78
2024/01/11 00:14:26;;;;;;;58.78;29.08;;;-3.00;68.20;;;;;;5066716;28;20102;-78
2024/01/11 00:16:56;;;;;;;50.22;26.60;;;-3.00;68.40;;;;;;5065227;28;20041;-78
2024/01/11 00:19:22;;;;;;;54.25;25.25;;;-3.10;68.40;;;;;;5074059;28;20054;-77
2024/01/11 00:21:52;;;;;;;54.35;25.35;;;-3.10;68.60;;;;;;5055291;28;20484;-78
2024/01/11 00:24:51;;;;;;;58.60;24.88;;;-3.10;68.60;;;;;;5028865;28;20049;-78
2024/01/11 00:27:23;;;;;;;52.00;23.65;;;-3.10;68.70;;;;;;5037726;28;20044;-78
2024/01/11 00:33:17;;;;;;;57.83;26.10;;;-3.00;68.50;;;;;;5059920;28;20043;-79
2024/01/11 00:36:51;;;;;;;60.08;27.73;;;-3.00;68.20;;;;;;5052295;28;20495;-78
2024/01/11 00:39:18;;;;;;;66.75;30.40;;;-3.10;67.70;;;;;;5071256;28;20086;-78
2024/01/11 00:41:45;;;;;;;57.00;26.15;;;-3.20;67.50;;;;;;5072332;28;20045;-78
2024/01/11 00:44:12;;;;;;;59.15;26.33;;;-3.20;67.70;;;;;;5038742;28;20094;-77
2024/01/11 00:46:42;;;;;;;62.67;28.33;;;-3.30;68.00;;;;;;5055277;28;20048;-78
2024/01/11 00:49:10;;;;;;;51.95;26.00;;;-3.20;68.20;;;;;;5055655;28;20417;-78
2024/01/11 00:52:00;;;;;;;58.45;27.25;;;-3.20;68.30;;;;;;5042221;28;20090;-78
2024/01/11 00:54:49;;;;;;;56.83;27.80;;;-3.20;68.30;;;;;;5072976;28;20493;-78
2024/01/11 00:57:21;;;;;;;54.50;26.77;;;-3.20;68.10;;;;;;5054855;28;20421;-78
2024/01/11 01:00:19;;;;;;;57.33;28.30;;;-3.20;68.10;;;;;;5072767;28;20090;-77
2024/01/11 01:02:51;;;;;;;55.08;26.08;;;-3.20;68.40;;;;;;5068110;28;20040;-78
2024/01/11 01:05:25;;;;;;;61.05;27.88;;;-3.30;68.60;;;;;;5039468;28;20020;-77
2024/01/11 01:08:08;;;;;;;55.08;24.92;;;-3.20;68.70;;;;;;5071956;28;20042;-78
2024/01/11 01:10:39;;;;;;;51.83;23.98;;;-3.30;68.70;;;;;;5055095;28;20029;-78
2024/01/11 01:13:21;;;;;;;56.28;23.88;;;-3.20;68.90;;;;;;5034702;28;20067;-78
2024/01/11 01:16:00;;;;;;;56.80;24.48;;;-3.30;69.10;;;;;;5071474;28;20111;-77
2024/01/11 01:18:28;;;;;;;58.35;23.65;;;-3.20;69.20;;;;;;5054648;28;20033;-77
2024/01/11 01:21:12;;;;;;;54.28;23.92;;;-3.20;69.40;;;;;;5072431;28;20104;-77
2024/01/11 01:23:43;;;;;;;54.13;24.30;;;-3.20;69.40;;;;;;5072652;28;20086;-77
2024/01/11 01:26:13;;;;;;;54.17;26.13;;;-3.20;69.10;;;;;;5055604;28;20056;-77
2024/01/11 01:28:43;;;;;;;56.50;24.67;;;-3.20;68.80;;;;;;5054596;28;20059;-78
2024/01/11 01:31:13;;;;;;;51.03;25.77;;;-3.20;68.70;;;;;;5054756;28;20060;-77
2024/01/11 01:33:40;;;;;;;55.53;25.45;;;-3.20;68.10;;;;;;5054557;28;20127;-77
2024/01/11 01:36:11;;;;;;;54.92;25.83;;;-3.20;68.00;;;;;;5021751;28;20027;-77
2024/01/11 01:38:36;;;;;;;56.40;26.77;;;-3.20;68.80;;;;;;5054912;28;20055;-78
2024/01/11 01:41:02;;;;;;;54.90;23.98;;;-3.20;67.60;;;;;;5054623;28;20536;-77
2024/01/11 01:43:29;;;;;;;55.20;23.17;;;-3.20;67.60;;;;;;5072667;28;20032;-77
2024/01/11 01:45:55;;;;;;;56.60;25.75;;;-3.30;67.60;;;;;;5038071;28;20374;-77
2024/01/11 01:48:23;;;;;;;53.35;23.35;;;-3.30;67.90;;;;;;5073077;28;20086;-77
2024/01/11 01:50:54;;;;;;;46.80;22.05;;;-3.30;68.10;;;;;;5054792;28;20111;-77
2024/01/11 01:53:42;;;;;;;55.50;24.38;;;-3.30;68.10;;;;;;5038879;28;20173;-77
2024/01/11 01:56:10;;;;;;;52.15;22.52;;;-3.40;67.80;;;;;;5054430;28;20036;-77
2024/01/11 01:58:36;;;;;;;44.83;22.05;;;-3.30;68.00;;;;;;5038369;28;20025;-77
2024/01/11 02:01:02;;;;;;;51.75;22.58;;;-3.40;67.90;;;;;;5054424;28;20032;-77
2024/01/11 02:03:29;;;;;;;54.35;24.90;;;-3.40;67.70;;;;;;5054062;28;20041;-77
2024/01/11 02:05:56;;;;;;;60.95;25.17;;;-3.40;67.80;;;;;;5054772;28;20027;-78
2024/01/11 02:08:25;;;;;;;58.70;26.77;;;-3.30;68.10;;;;;;5054843;28;20101;-77
2024/01/11 02:10:52;;;;;;;50.58;22.85;;;-3.30;68.30;;;;;;5038632;28;20021;-77
2024/01/11 02:13:19;;;;;;;49.83;23.50;;;-3.40;68.10;;;;;;5072471;28;20126;-77
2024/01/11 02:15:45;;;;;;;56.33;24.83;;;-3.40;67.90;;;;;;5054567;28;20021;-77
2024/01/11 02:18:11;;;;;;;52.72;24.58;;;-3.40;67.20;;;;;;5021456;28;20052;-78
2024/01/11 02:20:36;;;;;;;52.03;24.15;;;-3.50;67.30;;;;;;5072461;28;20067;-78
2024/01/11 02:23:13;;;;;;;54.25;25.13;;;-3.60;67.20;;;;;;5072253;28;20028;-78
2024/01/11 02:25:40;;;;;;;53.80;25.30;;;-3.60;67.40;;;;;;5054159;28;20501;-78
2024/01/11 02:28:06;;;;;;;56.83;27.35;;;-3.60;67.40;;;;;;5038363;28;20125;-79
2024/01/11 02:30:32;;;;;;;53.63;25.73;;;-3.60;67.30;;;;;;5054591;28;20096;-78
2024/01/11 02:33:00;;;;;;;53.05;24.73;;;-3.60;67.50;;;;;;5072330;28;20095;-78
2024/01/11 02:35:38;;;;;;;52.75;22.98;;;-3.60;67.60;;;;;;5072370;28;20087;-78
2024/01/11 02:38:05;;;;;;;52.15;23.00;;;-3.60;67.70;;;;;;5058225;28;20032;-77
2024/01/11 02:40:31;;;;;;;53.80;22.60;;;-3.60;68.20;;;;;;5057920;28;20037;-77
2024/01/11 02:42:56;;;;;;;55.17;23.58;;;-3.70;68.60;;;;;;5040965;28;20033;-77
2024/01/11 02:45:22;;;;;;;50.60;25.17;;;-3.70;68.80;;;;;;5075867;28;20500;-77
2024/01/11 02:47:51;;;;;;;55.75;25.33;;;-3.70;69.10;;;;;;5057874;28;20044;-77
2024/01/11 02:50:16;;;;;;;51.40;24.23;;;-3.60;69.10;;;;;;5057656;28;20494;-78
2024/01/11 02:52:42;;;;;;;56.33;27.05;;;-3.60;69.00;;;;;;5057435;28;20070;-77
2024/01/11 02:55:09;;;;;;;55.95;27.15;;;-3.60;68.90;;;;;;5058203;28;20047;-77
2024/01/11 02:57:35;;;;;;;57.58;25.83;;;-3.60;68.80;;;;;;5057512;28;20074;-77
2024/01/11 03:00:01;;;;;;;57.00;24.58;;;-3.50;68.60;;;;;;5040947;28;20454;-77
2024/01/11 03:02:28;;;;;;;53.00;24.13;;;-3.50;68.40;;;;;;5057089;28;20131;-78
2024/01/11 03:04:55;;;;;;;53.97;24.10;;;-3.50;67.90;;;;;;5075463;28;20020;-77
2024/01/11 03:07:32;;;;;;;52.50;22.27;;;-3.60;67.90;;;;;;5074604;28;20060;-78
2024/01/11 03:09:59;;;;;;;55.40;23.42;;;-3.60;68.10;;;;;;5040769;28;20563;-78
2024/01/11 03:12:26;;;;;;;54.97;23.00;;;-3.70;68.20;;;;;;5040761;28;20397;-77
2024/01/11 03:14:53;;;;;;;57.60;24.33;;;-3.70;68.30;;;;;;5057341;28;20032;-77
2024/01/11 03:17:19;;;;;;;52.95;25.55;;;-3.70;68.40;;;;;;5039630;28;20037;-78
2024/01/11 03:19:46;;;;;;;55.55;25.48;;;-3.70;68.00;;;;;;5057119;28;20028;-77
2024/01/11 03:22:15;;;;;;;61.22;25.92;;;-3.80;67.80;;;;;;5050777;28;20439;-78
2024/01/11 03:24:50;;;;;;;56.60;24.70;;;-3.80;67.40;;;;;;5073944;28;20048;-78
2024/01/11 03:27:16;;;;;;;52.90;23.17;;;-3.90;67.50;;;;;;5057193;28;20032;-78
2024/01/11 03:29:47;;;;;;;53.55;23.80;;;-3.90;68.00;;;;;;5039020;28;20043;-77
2024/01/11 03:32:20;;;;;;;54.63;22.40;;;-4.00;68.50;;;;;;5057054;28;20025;-77
2024/01/11 03:35:22;;;;;;;58.78;24.58;;;-3.90;68.60;;;;;;5056770;28;20402;-76
2024/01/11 03:37:48;;;;;;;55.80;23.70;;;-3.90;68.40;;;;;;5055417;28;20024;-77
2024/01/11 03:40:36;;;;;;;56.30;24.10;;;-3.90;68.40;;;;;;5015970;28;20103;-77
2024/01/11 03:43:19;;;;;;;59.78;24.45;;;-4.00;68.40;;;;;;5031425;28;20056;-77
2024/01/11 03:45:57;;;;;;;57.55;24.70;;;-3.90;68.50;;;;;;5032560;28;20426;-77
2024/01/11 03:48:42;;;;;;;63.55;26.58;;;-4.00;68.00;;;;;;5032474;28;20029;-77
2024/01/11 03:51:23;;;;;;;60.65;28.70;;;-3.90;69.10;;;;;;5032476;28;20053;-78
2024/01/11 03:53:50;;;;;;;62.35;29.10;;;-4.00;68.40;;;;;;5032442;28;20437;-77
2024/01/11 03:56:42;;;;;;;66.65;28.80;;;-4.00;68.30;;;;;;5032384;28;20026;-77
2024/01/11 03:59:35;;;;;;;58.90;25.20;;;-3.90;68.30;;;;;;5032389;28;20076;-79
2024/01/11 04:02:30;;;;;;;57.78;26.05;;;-3.90;68.20;;;;;;5032254;28;20457;-79
2024/01/11 04:05:00;;;;;;;60.97;27.08;;;-3.90;68.20;;;;;;5032254;28;20023;-78
2024/01/11 04:07:29;;;;;;;59.42;26.63;;;-4.00;67.70;;;;;;5031122;28;20048;-78
2024/01/11 04:10:05;;;;;;;58.15;26.90;;;-4.00;67.50;;;;;;5032878;28;20087;-77
2024/01/11 04:12:38;;;;;;;61.53;27.27;;;-4.00;67.40;;;;;;5073528;28;20025;-77
2024/01/11 04:15:12;;;;;;;61.90;27.08;;;-4.00;67.30;;;;;;5057040;28;20025;-77
2024/01/11 04:17:39;;;;;;;61.33;29.48;;;-4.00;67.40;;;;;;5073965;28;20033;-77
2024/01/11 04:20:29;;;;;;;64.18;29.15;;;-4.00;67.50;;;;;;5056020;28;20111;-77
2024/01/11 04:23:01;;;;;;;63.63;30.52;;;-4.00;67.50;;;;;;5059714;28;20043;-77
2024/01/11 04:25:28;;;;;;;63.45;28.45;;;-4.00;67.40;;;;;;5055535;28;20048;-77
2024/01/11 04:27:54;;;;;;;55.22;25.75;;;-4.00;67.40;;;;;;5073909;28;20473;-77
2024/01/11 04:30:21;;;;;;;52.03;23.88;;;-4.00;67.40;;;;;;5073617;28;20082;-77
2024/01/11 04:32:48;;;;;;;49.75;22.13;;;-4.00;67.40;;;;;;5055723;28;20043;-77
2024/01/11 04:35:13;;;;;;;49.67;24.75;;;-4.10;67.70;;;;;;5039281;28;20050;-78
2024/01/11 04:37:42;;;;;;;57.00;26.13;;;-4.10;68.00;;;;;;5073527;28;20025;-77
2024/01/11 04:40:09;;;;;;;52.65;25.40;;;-4.20;68.50;;;;;;5055482;28;20044;-78
2024/01/11 04:42:35;;;;;;;50.03;24.77;;;-4.20;68.60;;;;;;5055585;28;20043;-77
2024/01/11 04:45:25;;;;;;;53.00;25.38;;;-4.20;68.70;;;;;;5040414;28;20493;-77
2024/01/11 04:47:54;;;;;;;51.10;23.98;;;-4.30;68.80;;;;;;5072684;28;20420;-76
2024/01/11 04:50:23;;;;;;;60.22;25.70;;;-4.30;68.70;;;;;;5039019;28;20135;-77
2024/01/11 04:53:11;;;;;;;54.55;25.42;;;-4.30;68.70;;;;;;5073139;28;20070;-76
2024/01/11 04:55:47;;;;;;;52.80;24.85;;;-4.30;68.80;;;;;;5072926;28;20024;-77
2024/01/11 04:58:15;;;;;;;53.00;25.65;;;-4.20;68.50;;;;;;5072817;28;20028;-77
2024/01/11 05:00:48;;;;;;;55.47;25.95;;;-4.20;68.10;;;;;;5038524;28;20120;-77
2024/01/11 05:03:20;;;;;;;51.83;26.08;;;-4.20;68.00;;;;;;5073883;28;20040;-78
2024/01/11 05:06:13;;;;;;;50.50;24.35;;;-4.20;67.90;;;;;;5038760;28;20051;-78
2024/01/11 05:09:01;;;;;;;42.72;21.73;;;-4.10;68.00;;;;;;5042498;28;20085;-77
2024/01/11 05:11:28;;;;;;;47.03;21.80;;;-4.00;68.10;;;;;;5047816;28;20028;-77
2024/01/11 05:14:02;;;;;;;46.72;20.75;;;-4.00;68.00;;;;;;5054636;28;20021;-78
2024/01/11 05:16:31;;;;;;;50.83;22.13;;;-4.00;68.00;;;;;;5054571;28;20032;-77
2024/01/11 05:19:11;;;;;;;51.70;21.27;;;-3.90;68.10;;;;;;5073036;28;20035;-78
2024/01/11 05:21:39;;;;;;;48.63;20.50;;;-3.90;68.00;;;;;;5071958;28;20063;-77
2024/01/11 05:24:42;;;;;;;46.45;18.25;;;-3.90;67.90;;;;;;5063232;28;20068;-78
2024/01/11 05:27:35;;;;;;;50.30;24.00;;;-3.90;68.00;;;;;;5071567;28;20472;-78
2024/01/11 05:30:22;;;;;;;49.63;23.45;;;-3.90;69.00;;;;;;5073354;28;20021;-78
2024/01/11 05:33:08;;;;;;;63.13;28.67;;;-3.80;68.20;;;;;;5054914;28;20108;-77
2024/01/11 05:35:47;;;;;;;66.55;30.58;;;-3.80;68.10;;;;;;5054075;28;20029;-77
2024/01/11 05:38:33;;;;;;;57.20;28.90;;;-3.80;68.10;;;;;;5047350;28;20032;-80
2024/01/11 05:40:59;;;;;;;58.85;27.38;;;-3.90;68.40;;;;;;5038072;28;20029;-79
2024/01/11 05:43:26;;;;;;;59.78;28.95;;;-3.80;68.60;;;;;;5073060;28;20108;-78
2024/01/11 05:45:53;;;;;;;51.55;25.83;;;-3.80;69.00;;;;;;5054670;28;20079;-80
2024/01/11 05:48:19;;;;;;;53.78;24.90;;;-3.70;69.10;;;;;;5054948;28;20063;-77
2024/01/11 05:50:49;;;;;;;49.17;24.17;;;-3.70;69.00;;;;;;5054805;28;20025;-77
2024/01/11 05:53:15;;;;;;;49.25;23.60;;;-3.70;68.90;;;;;;5054702;28;20052;-79
2024/01/11 05:55:45;;;;;;;47.50;23.48;;;-3.60;68.90;;;;;;5055029;28;20468;-79
2024/01/11 05:58:16;;;;;;;45.78;22.10;;;-3.60;68.90;;;;;;5055095;28;20033;-79
2024/01/11 06:00:44;;;;;;;45.03;21.92;;;-3.60;69.20;;;;;;5054355;28;20385;-79
2024/01/11 06:03:12;;;;;;;42.88;20.60;;;-3.60;69.50;;;;;;5054301;28;20549;-78
2024/01/11 06:05:39;;;;;;;48.50;21.83;;;-3.60;69.70;;;;;;5054675;28;20048;-79
2024/01/11 06:08:31;;;;;;;55.30;24.40;;;-3.60;70.10;;;;;;5038002;28;20020;-76
2024/01/11 06:11:00;;;;;;;47.17;21.80;;;-3.50;70.40;;;;;;5055449;28;20017;-78
2024/01/11 06:13:30;;;;;;;49.63;22.30;;;-3.50;70.40;;;;;;5076314;28;20035;-77
2024/01/11 06:15:58;;;;;;;53.63;23.27;;;-3.40;70.70;;;;;;5052158;28;20385;-78
2024/01/11 06:18:29;;;;;;;54.65;22.13;;;-3.40;71.80;;;;;;5058165;28;20025;-78
2024/01/11 06:21:06;;;;;;;47.40;20.23;;;-3.30;71.40;;;;;;5059310;28;20028;-78
2024/01/11 06:23:42;;;;;;;52.15;25.45;;;-3.20;71.40;;;;;;5075060;28;20041;-78
2024/01/11 06:26:10;;;;;;;58.00;24.90;;;-3.20;71.20;;;;;;5075921;28;20583;-77
2024/01/11 06:28:36;;;;;;;51.67;25.55;;;-3.10;71.60;;;;;;5058171;28;20032;-78
2024/01/11 06:31:03;;;;;;;68.85;31.23;;;-3.00;71.50;;;;;;5041462;28;20032;-78
2024/01/11 06:33:40;;;;;;;60.90;27.63;;;-3.10;71.30;;;;;;5058082;28;20037;-78
2024/01/11 06:36:10;;;;;;;58.15;26.75;;;-3.10;71.50;;;;;;5070670;28;20043;-77
2024/01/11 06:38:46;;;;;;;58.45;26.30;;;-3.10;72.30;;;;;;5041542;28;20028;-77
2024/01/11 06:41:16;;;;;;;65.07;28.85;;;-3.20;71.40;;;;;;5076347;28;20325;-78
2024/01/11 06:44:15;;;;;;;59.00;26.45;;;-3.10;71.70;;;;;;5072197;28;20079;-78
2024/01/11 06:46:43;;;;;;;61.22;28.42;;;-3.00;72.20;;;;;;5076031;28;20074;-76
2024/01/11 06:49:52;;;;;;;64.10;30.75;;;-3.00;72.40;;;;;;5060770;28;20461;-77
2024/01/11 06:52:20;;;;;;;66.38;28.73;;;-3.00;73.00;;;;;;5044040;28;20028;-77
2024/01/11 06:54:48;;;;;;;76.22;32.40;;;-2.90;73.80;;;;;;5040812;28;20598;-77
2024/01/11 06:57:31;;;;;;;79.13;32.20;;;-2.90;73.70;;;;;;5075515;28;20021;-78
2024/01/11 07:00:00;;;;;;;72.78;30.67;;;-2.90;74.00;;;;;;5043208;28;20039;-77
2024/01/11 07:02:40;;;;;;;74.93;34.55;;;-3.00;74.60;;;;;;5073594;28;20366;-77
2024/01/11 07:05:15;;;;;;;77.18;35.03;;;-3.00;75.00;;;;;;5041098;28;20040;-78
2024/01/11 07:08:07;;;;;;;67.32;31.42;;;-3.00;75.30;;;;;;5074711;28;20028;-76
2024/01/11 07:10:43;;;;;;;73.95;32.28;;;-3.00;76.30;;;;;;5075602;28;20048;-76
2024/01/11 07:13:21;;;;;;;82.28;32.50;;;-3.00;76.60;;;;;;5071669;28;20033;-78
2024/01/11 07:16:03;;;;;;;77.80;31.58;;;-3.00;76.70;;;;;;5039893;28;20047;-78
2024/01/11 07:18:36;;;;;;;67.05;30.83;;;-3.00;76.60;;;;;;5057304;28;20052;-78
2024/01/11 07:21:05;;;;;;;79.30;35.15;;;-3.00;76.70;;;;;;5040765;28;20135;-78
2024/01/11 07:23:33;;;;;;;78.05;34.25;;;-3.00;77.00;;;;;;5056929;28;20039;-75
2024/01/11 07:26:00;;;;;;;75.88;31.80;;;-3.00;77.30;;;;;;5075036;28;20127;-78
2024/01/11 07:28:36;;;;;;;77.93;34.00;;;-3.10;77.20;;;;;;5073236;28;20081;-77
2024/01/11 07:31:06;;;;;;;76.63;30.92;;;-3.10;77.10;;;;;;5071485;28;20040;-76
2024/01/11 07:33:32;;;;;;;78.68;33.30;;;-3.10;77.10;;;;;;5056573;28;20029;-78
2024/01/11 07:36:00;;;;;;;70.03;28.63;;;-3.10;77.40;;;;;;5056873;28;20174;-76
2024/01/11 07:38:26;;;;;;;75.93;29.73;;;-3.10;77.60;;;;;;5056783;28;20032;-77
2024/01/11 07:40:55;;;;;;;60.70;28.65;;;-3.00;77.50;;;;;;5040358;28;20032;-77
2024/01/11 07:43:34;;;;;;;71.30;29.52;;;-2.90;77.40;;;;;;5075015;28;20041;-75
2024/01/11 07:46:05;;;;;;;73.38;33.45;;;-2.80;77.10;;;;;;5056869;28;20020;-78
2024/01/11 07:48:31;;;;;;;76.38;35.63;;;-2.80;76.60;;;;;;5052726;28;20052;-77
2024/01/11 07:50:57;;;;;;;69.30;33.30;;;-2.80;76.40;;;;;;5039880;28;20028;-76
2024/01/11 07:53:32;;;;;;;73.72;35.83;;;-2.70;76.10;;;;;;5057181;28;20024;-79
2024/01/11 07:55:59;;;;;;;74.35;33.75;;;-2.80;75.90;;;;;;5075178;28;20427;-77
2024/01/11 07:58:26;;;;;;;75.55;36.17;;;-2.80;75.80;;;;;;5040357;28;20025;-76
2024/01/11 08:00:56;;;;;;;81.25;36.70;;;-2.80;75.50;;;;;;5039852;28;20033;-78
2024/01/11 08:03:22;;;;;;;85.20;38.75;;;-2.90;75.70;;;;;;5056209;28;20108;-77
2024/01/11 08:05:53;;;;;;;84.78;39.95;;;-2.90;75.50;;;;;;5056330;28;20020;-77
2024/01/11 08:08:55;;;;;;;82.00;38.25;;;-2.90;75.70;;;;;;5048462;28;20040;-78
2024/01/11 08:11:21;;;;;;;72.80;36.90;;;-2.90;75.80;;;;;;5044141;28;20033;-79
2024/01/11 08:13:54;;;;;;;76.30;34.45;;;-2.80;75.70;;;;;;5056577;28;20074;-77
2024/01/11 08:16:24;;;;;;;70.05;32.42;;;-2.80;75.50;;;;;;5073849;28;20021;-77
2024/01/11 08:18:54;;;;;;;75.00;34.67;;;-2.70;75.30;;;;;;5057794;28;20028;-77
2024/01/11 08:21:22;;;;;;;63.10;31.17;;;-2.60;75.10;;;;;;5055842;28;20115;-77
2024/01/11 08:23:57;;;;;;;72.75;35.50;;;-2.50;74.90;;;;;;5073055;28;20041;-77
2024/01/11 08:26:39;;;;;;;77.05;35.95;;;-2.40;74.40;;;;;;5045189;28;20516;-77
2024/01/11 08:29:22;;;;;;;66.25;32.70;;;-2.40;73.80;;;;;;5047895;28;20110;-77
2024/01/11 08:31:56;;;;;;;76.95;35.13;;;-2.30;73.50;;;;;;5036229;28;20116;-77
2024/01/11 08:34:34;;;;;;;74.78;34.95;;;-2.30;73.10;;;;;;5047390;28;20037;-77
2024/01/11 08:37:04;;;;;;;81.05;38.92;;;-2.40;72.90;;;;;;5051856;28;20040;-76
2024/01/11 08:40:00;;;;;;;83.45;38.28;;;-2.40;73.40;;;;;;5051491;28;20083;-76
2024/01/11 08:42:44;;;;;;;92.97;39.38;;;-2.50;74.30;;;;;;5052822;28;20033;-78
2024/01/11 08:45:17;;;;;;;86.18;37.58;;;-2.60;74.50;;;;;;5051849;28;20041;-78
2024/01/11 08:47:46;;;;;;;72.70;32.67;;;-2.50;75.10;;;;;;5053448;28;20031;-78
2024/01/11 08:50:16;;;;;;;84.10;35.38;;;-2.50;75.10;;;;;;5051876;28;20020;-78
2024/01/11 08:52:46;;;;;;;83.45;35.90;;;-2.40;75.10;;;;;;5053158;28;20078;-78
2024/01/11 08:55:14;;;;;;;94.70;36.60;;;-2.40;74.90;;;;;;5051009;28;20029;-78
2024/01/11 08:57:43;;;;;;;87.28;35.90;;;-2.50;74.40;;;;;;5053346;28;20037;-78
2024/01/11 09:00:17;;;;;;;84.47;39.75;;;-2.60;74.80;;;;;;5051828;28;20025;-77
2024/01/11 09:02:45;;;;;;;89.72;40.45;;;-2.70;75.40;;;;;;5035469;28;20061;-77
2024/01/11 09:05:21;;;;;;;91.38;41.28;;;-2.80;75.80;;;;;;5050604;28;20041;-78
2024/01/11 09:07:54;;;;;;;91.78;39.90;;;-2.80;75.70;;;;;;5051540;28;20122;-78
2024/01/11 09:10:20;;;;;;;79.32;36.25;;;-2.80;75.70;;;;;;5035319;28;20102;-79
2024/01/11 09:12:46;;;;;;;95.78;42.00;;;-2.70;75.90;;;;;;5052290;28;20450;-81
2024/01/11 09:16:03;;;;;;;93.80;40.92;;;-2.60;76.10;;;;;;5052037;28;20466;-80
2024/01/11 09:18:49;;;;;;;95.53;40.70;;;-1.60;91.70;;;;;;5035635;28;20059;-77
2024/01/11 09:21:18;;;;;;;94.68;42.47;;;-1.20;90.40;;;;;;5053186;28;20039;-77
2024/01/11 09:24:06;;;;;;;88.80;43.22;;;-1.00;85.50;;;;;;5035168;28;20052;-81
2024/01/11 09:26:33;;;;;;;74.10;37.47;;;-0.70;79.10;;;;;;5031689;28;20086;-79
2024/01/11 09:33:01;;;;;;;78.40;40.33;;;0.10;69.70;;;;;;5073630;28;20032;-79
2024/01/11 09:36:28;;;;;;;77.28;42.22;;;0.30;68.20;;;;;;5062152;28;20077;-81
2024/01/11 09:39:14;;;;;;;82.00;39.80;;;0.50;66.40;;;;;;5072638;28;20060;-79
2024/01/11 09:41:49;;;;;;;77.82;40.10;;;0.60;64.30;;;;;;5037449;28;20123;-78
2024/01/11 09:44:14;;;;;;;81.40;42.40;;;0.40;63.20;;;;;;5038093;28;20032;-78
2024/01/11 09:46:40;;;;;;;77.75;39.45;;;0.00;63.10;;;;;;5077989;28;20089;-81
2024/01/11 09:49:08;;;;;;;81.85;38.17;;;-0.30;64.50;;;;;;5061354;28;20438;-79
2024/01/11 09:51:37;;;;;;;81.40;40.28;;;-0.50;65.20;;;;;;5061633;28;20023;-78
2024/01/11 09:54:03;;;;;;;74.05;36.30;;;-0.90;66.20;;;;;;5079126;28;20032;-82
2024/01/11 09:56:29;;;;;;;76.70;36.55;;;-1.00;67.40;;;;;;5061142;28;20111;-78
2024/01/11 09:58:54;;;;;;;86.07;38.95;;;-1.20;67.80;;;;;;5061289;28;20429;-79
2024/01/11 10:01:21;;;;;;;98.22;42.10;;;-1.40;68.10;;;;;;5060861;28;20020;-79
2024/01/11 10:03:47;;;;;;;87.65;40.22;;;-1.50;68.90;;;;;;5044393;28;20036;-80
2024/01/11 10:06:15;;;;;;;81.93;38.70;;;-1.70;69.60;;;;;;5079395;28;20082;-81
2024/01/11 10:08:41;;;;;;;85.18;37.47;;;-1.70;70.30;;;;;;5061451;28;20032;-80
2024/01/11 10:11:07;;;;;;;80.10;41.88;;;-1.70;70.60;;;;;;5060918;28;20021;-80
2024/01/11 10:13:35;;;;;;;87.75;45.13;;;-1.60;70.60;;;;;;5061296;28;20020;-81
2024/01/11 10:16:09;;;;;;;80.13;40.10;;;-1.50;70.60;;;;;;5061507;28;20071;-80
2024/01/11 10:18:35;;;;;;;86.78;44.50;;;-1.40;70.00;;;;;;5061201;28;20380;-81
2024/01/11 10:21:05;;;;;;;85.30;43.72;;;-1.50;70.20;;;;;;5060972;28;20055;-81
2024/01/11 10:23:34;;;;;;;85.97;41.58;;;-1.50;70.20;;;;;;5061154;28;20051;-82
2024/01/11 10:26:01;;;;;;;84.78;43.40;;;-1.40;70.00;;;;;;5061253;28;20424;-82
2024/01/11 10:28:27;;;;;;;95.82;45.78;;;-1.40;70.00;;;;;;5061187;28;20063;-82
2024/01/11 10:30:53;;;;;;;91.43;44.92;;;-1.50;70.00;;;;;;5077316;28;20044;-82
2024/01/11 10:33:22;;;;;;;93.88;46.65;;;-1.50;70.00;;;;;;5061161;28;20070;-81
2024/01/11 10:35:51;;;;;;;88.45;44.08;;;-1.60;70.40;;;;;;5060980;28;20025;-82
2024/01/11 10:38:17;;;;;;;92.68;44.30;;;-1.90;72.10;;;;;;5061087;28;20082;-81
2024/01/11 10:40:44;;;;;;;97.97;48.70;;;-1.80;72.10;;;;;;5060966;28;20426;-80
2024/01/11 10:43:11;;;;;;;100.90;45.53;;;-2.10;73.50;;;;;;5061267;28;20146;-80
2024/01/11 10:45:41;;;;;;;94.57;42.92;;;-2.00;73.30;;;;;;5061031;28;20027;-82
2024/01/11 10:48:13;;;;;;;98.03;47.75;;;-2.00;73.20;;;;;;5061274;28;20031;-83
2024/01/11 10:50:42;;;;;;;87.82;43.15;;;-1.90;73.30;;;;;;5061504;28;20020;-80
2024/01/11 10:53:28;;;;;;;85.22;41.33;;;-1.70;73.20;;;;;;5084289;28;20024;-80
2024/01/11 10:55:56;;;;;;;100.95;48.05;;;-1.50;73.10;;;;;;5064211;28;20469;-81
2024/01/11 10:58:22;;;;;;;99.88;49.60;;;-1.50;72.40;;;;;;5076100;28;20428;-81
2024/01/11 11:00:51;;;;;;;91.68;44.53;;;-1.60;72.30;;;;;;5057849;28;20024;-81
2024/01/11 11:03:20;;;;;;;102.70;49.83;;;-1.60;72.20;;;;;;5057336;28;20028;-82
2024/01/11 11:05:50;;;;;;;98.00;48.28;;;-1.60;72.50;;;;;;5057776;28;20028;-80
2024/01/11 11:08:17;;;;;;;92.25;45.35;;;-1.60;73.40;;;;;;5056690;28;20029;-80
2024/01/11 11:10:47;;;;;;;88.43;43.15;;;-1.50;72.90;;;;;;5057368;28;20055;-82
2024/01/11 11:13:15;;;;;;;102.80;46.85;;;-1.50;72.90;;;;;;5056725;28;20037;-83
2024/01/11 11:15:46;;;;;;;103.15;46.35;;;-1.50;72.30;;;;;;5057262;28;20025;-80
2024/01/11 11:18:13;;;;;;;83.72;44.28;;;-1.60;73.00;;;;;;5056973;28;20427;-81
2024/01/11 11:20:43;;;;;;;95.93;45.65;;;-1.60;72.80;;;;;;5057398;28;20020;-80
2024/01/11 11:23:13;;;;;;;98.80;43.55;;;-1.70;72.90;;;;;;5057317;28;20037;-79
2024/01/11 11:25:42;;;;;;;91.03;45.50;;;-1.80;73.20;;;;;;5032523;22;20065;-80
2024/01/11 11:28:10;;;;;;;103.30;47.10;;;-1.90;74.10;;;;;;5033920;28;20497;-85
2024/01/11 11:30:41;;;;;;;101.93;45.53;;;-1.80;73.70;;;;;;5035322;28;20040;-80
2024/01/11 11:33:09;;;;;;;104.65;46.00;;;-1.80;73.90;;;;;;5035164;28;20040;-83
2024/01/11 11:35:35;;;;;;;97.25;47.53;;;-2.10;75.70;;;;;;5017385;28;20021;-82
2024/01/11 11:38:02;;;;;;;98.55;46.35;;;-2.00;75.70;;;;;;5035062;28;20103;-82
2024/01/11 11:40:42;;;;;;;96.75;45.13;;;-2.00;75.70;;;;;;5034938;28;20026;-81
2024/01/11 11:43:08;;;;;;;97.90;47.05;;;-1.90;76.70;;;;;;5034631;28;20103;-80
2024/01/11 11:45:35;;;;;;;94.63;47.97;;;-1.90;76.20;;;;;;5034390;28;20028;-80
2024/01/11 11:48:01;;;;;;;100.15;45.72;;;-1.90;76.20;;;;;;5016636;28;20037;-81
2024/01/11 11:50:29;;;;;;;101.53;47.33;;;-1.80;76.00;;;;;;5034513;28;20025;-82
2024/01/11 11:52:58;;;;;;;101.53;50.42;;;-1.70;75.70;;;;;;5034418;28;20022;-83
2024/01/11 11:55:28;;;;;;;100.65;46.53;;;-1.70;75.40;;;;;;5034756;28;20017;-78
2024/01/11 11:57:54;;;;;;;103.57;50.22;;;-1.70;75.00;;;;;;5016894;28;20032;-82
2024/01/11 12:00:23;;;;;;;105.65;48.55;;;-1.60;74.40;;;;;;5034402;28;20017;-80
2024/01/11 12:02:51;;;;;;;107.70;53.10;;;-1.60;74.20;;;;;;5016164;28;20034;-80
2024/01/11 12:05:43;;;;;;;105.65;53.03;;;-1.80;74.90;;;;;;5033924;28;20434;-79
2024/01/11 12:08:08;;;;;;;109.60;52.85;;;-1.70;75.00;;;;;;5015088;28;20022;-82
2024/01/11 12:10:34;;;;;;;106.68;54.85;;;-1.60;74.80;;;;;;5033821;28;20037;-81
2024/01/11 12:13:00;;;;;;;105.88;51.72;;;-1.70;74.60;;;;;;5033752;28;20024;-78
2024/01/11 12:15:27;;;;;;;103.45;48.13;;;-1.80;75.50;;;;;;5034027;28;20029;-82
2024/01/11 12:17:58;;;;;;;115.50;48.05;;;-2.00;76.20;;;;;;5033809;28;20018;-81
2024/01/11 12:20:24;;;;;;;109.43;47.83;;;-1.90;76.40;;;;;;5016379;28;20327;-81
2024/01/11 12:22:49;;;;;;;106.15;46.30;;;-2.10;76.80;;;;;;5034049;28;20082;-82
2024/01/11 12:25:15;;;;;;;96.05;46.45;;;-2.10;77.50;;;;;;5032149;28;20569;-79
2024/01/11 12:27:41;;;;;;;103.55;52.38;;;-2.00;77.40;;;;;;5034441;28;20024;-77
2024/01/11 12:30:10;;;;;;;113.22;52.05;;;-2.00;76.70;;;;;;5034385;28;20056;-78
2024/01/11 12:32:36;;;;;;;108.50;49.38;;;-2.10;77.80;;;;;;5033818;28;20018;-78
2024/01/11 12:35:03;;;;;;;101.57;45.92;;;-2.20;76.60;;;;;;5033676;28;20029;-82
2024/01/11 12:37:30;;;;;;;102.25;47.92;;;-2.30;77.20;;;;;;5034138;28;20474;-82
2024/01/11 12:39:58;;;;;;;117.82;51.78;;;-2.30;77.50;;;;;;5034010;28;20026;-80
2024/01/11 12:42:25;;;;;;;106.68;48.92;;;-2.20;77.20;;;;;;5015691;28;20021;-81
2024/01/11 12:44:51;;;;;;;109.53;46.13;;;-2.30;77.40;;;;;;5015841;28;20075;-78
2024/01/11 12:47:18;;;;;;;95.95;42.83;;;-2.30;77.50;;;;;;5016281;28;20018;-80
2024/01/11 12:49:47;;;;;;;98.45;43.15;;;-2.30;77.40;;;;;;5033630;28;20084;-82
2024/01/11 12:52:24;;;;;;;103.28;47.72;;;-2.20;77.40;;;;;;5033786;28;20018;-80
2024/01/11 12:54:52;;;;;;;105.38;47.35;;;-2.00;77.10;;;;;;5033646;28;20049;-80
2024/01/11 12:57:21;;;;;;;97.03;42.40;;;-1.90;76.80;;;;;;5034057;28;20018;-81
2024/01/11 12:59:48;;;;;;;101.28;45.83;;;-1.60;76.40;;;;;;5034022;28;20390;-81